sensor_id;sensor_type;location;lat;lon;timestamp;P1;durP1;ratioP1;P2;durP2;ratioP2
56667;SDS011;42542;48.360;10.958;2023-08-12T00:02:36;8.20;;;4.28;;
56667;SDS011;42542;48.360;10.958;2023-08-12T00:05:37;9.50;;;4.23;;
56667;SDS011;42542;48.360;10.958;2023-08-12T00:08:42;9.30;;;4.20;;
56667;SDS011;42542;48.360;10.958;2023-08-12T00:11:44;8.48;;;4.13;;
56667;SDS011;42542;48.360;10.958;2023-08-12T00:14:46;8.77;;;4.32;;
56667;SDS011;42542;48.360;10.958;2023-08-12T00:17:47;8.77;;;4.00;;
56667;SDS011;42542;48.360;10.958;2023-08-12T00:20:50;7.43;;;3.93;;
56667;SDS011;42542;48.360;10.958;2023-08-12T00:23:52;9.13;;;4.25;;
56667;SDS011;42542;48.360;10.958;2023-08-12T00:26:55;8.10;;;4.30;;
56667;SDS011;42542;48.360;10.958;2023-08-12T00:29:57;9.10;;;4.18;;
56667;SDS011;42542;48.360;10.958;2023-08-12T00:32:59;8.25;;;4.18;;
56667;SDS011;42542;48.360;10.958;2023-08-12T00:36:01;8.87;;;4.37;;
56667;SDS011;42542;48.360;10.958;2023-08-12T00:39:04;9.65;;;4.53;;
56667;SDS011;42542;48.360;10.958;2023-08-12T00:42:06;8.98;;;4.30;;
56667;SDS011;42542;48.360;10.958;2023-08-12T00:45:11;10.93;;;4.32;;
56667;SDS011;42542;48.360;10.958;2023-08-12T00:48:15;8.82;;;4.88;;
56667;SDS011;42542;48.360;10.958;2023-08-12T00:51:20;11.27;;;4.63;;
56667;SDS011;42542;48.360;10.958;2023-08-12T00:54:22;11.05;;;4.55;;
56667;SDS011;42542;48.360;10.958;2023-08-12T00:57:27;10.15;;;4.80;;
56667;SDS011;42542;48.360;10.958;2023-08-12T01:00:29;10.15;;;4.95;;
56667;SDS011;42542;48.360;10.958;2023-08-12T01:03:32;11.70;;;6.00;;
56667;SDS011;42542;48.360;10.958;2023-08-12T01:06:34;9.80;;;5.15;;
56667;SDS011;42542;48.360;10.958;2023-08-12T01:09:38;11.60;;;5.05;;
56667;SDS011;42542;48.360;10.958;2023-08-12T01:12:41;9.88;;;5.10;;
56667;SDS011;42542;48.360;10.958;2023-08-12T01:15:52;12.25;;;5.13;;
56667;SDS011;42542;48.360;10.958;2023-08-12T01:18:57;9.40;;;5.00;;
56667;SDS011;42542;48.360;10.958;2023-08-12T01:22:01;9.23;;;4.32;;
56667;SDS011;42542;48.360;10.958;2023-08-12T01:25:05;11.13;;;4.85;;
56667;SDS011;42542;48.360;10.958;2023-08-12T01:28:08;9.32;;;4.82;;
56667;SDS011;42542;48.360;10.958;2023-08-12T01:34:36;9.13;;;4.90;;
56667;SDS011;42542;48.360;10.958;2023-08-12T01:37:50;11.95;;;4.80;;
56667;SDS011;42542;48.360;10.958;2023-08-12T01:40:55;10.55;;;4.97;;
56667;SDS011;42542;48.360;10.958;2023-08-12T01:43:58;9.75;;;4.90;;
56667;SDS011;42542;48.360;10.958;2023-08-12T01:47:00;8.85;;;4.90;;
56667;SDS011;42542;48.360;10.958;2023-08-12T01:50:02;10.30;;;4.80;;
56667;SDS011;42542;48.360;10.958;2023-08-12T01:53:05;9.60;;;4.60;;
56667;SDS011;42542;48.360;10.958;2023-08-12T01:56:07;10.40;;;4.90;;
56667;SDS011;42542;48.360;10.958;2023-08-12T01:59:10;9.00;;;4.60;;
56667;SDS011;42542;48.360;10.958;2023-08-12T02:02:13;9.37;;;5.23;;
56667;SDS011;42542;48.360;10.958;2023-08-12T02:05:16;11.55;;;5.00;;
56667;SDS011;42542;48.360;10.958;2023-08-12T02:08:18;11.63;;;4.90;;
56667;SDS011;42542;48.360;10.958;2023-08-12T02:11:20;9.07;;;4.80;;
56667;SDS011;42542;48.360;10.958;2023-08-12T02:14:22;10.63;;;5.20;;
56667;SDS011;42542;48.360;10.958;2023-08-12T02:17:25;10.05;;;5.10;;
56667;SDS011;42542;48.360;10.958;2023-08-12T02:20:27;9.40;;;4.90;;
56667;SDS011;42542;48.360;10.958;2023-08-12T02:23:29;10.10;;;4.90;;
56667;SDS011;42542;48.360;10.958;2023-08-12T02:26:32;10.18;;;5.10;;
56667;SDS011;42542;48.360;10.958;2023-08-12T02:29:35;12.05;;;5.32;;
56667;SDS011;42542;48.360;10.958;2023-08-12T02:32:37;9.95;;;5.03;;
56667;SDS011;42542;48.360;10.958;2023-08-12T02:35:39;11.25;;;5.13;;
56667;SDS011;42542;48.360;10.958;2023-08-12T02:38:41;11.30;;;4.93;;
56667;SDS011;42542;48.360;10.958;2023-08-12T02:41:44;9.90;;;5.00;;
56667;SDS011;42542;48.360;10.958;2023-08-12T02:44:45;12.68;;;5.43;;
56667;SDS011;42542;48.360;10.958;2023-08-12T02:47:48;9.35;;;4.90;;
56667;SDS011;42542;48.360;10.958;2023-08-12T02:50:50;12.57;;;5.40;;
56667;SDS011;42542;48.360;10.958;2023-08-12T02:53:52;9.60;;;5.20;;
56667;SDS011;42542;48.360;10.958;2023-08-12T02:56:54;11.52;;;5.10;;
56667;SDS011;42542;48.360;10.958;2023-08-12T02:59:57;10.98;;;5.32;;
56667;SDS011;42542;48.360;10.958;2023-08-12T03:02:59;10.57;;;5.10;;
56667;SDS011;42542;48.360;10.958;2023-08-12T03:06:02;12.60;;;5.40;;
56667;SDS011;42542;48.360;10.958;2023-08-12T03:09:04;11.27;;;5.10;;
56667;SDS011;42542;48.360;10.958;2023-08-12T03:12:07;11.00;;;5.22;;
56667;SDS011;42542;48.360;10.958;2023-08-12T03:15:11;11.48;;;5.68;;
56667;SDS011;42542;48.360;10.958;2023-08-12T03:18:13;11.20;;;5.45;;
56667;SDS011;42542;48.360;10.958;2023-08-12T03:21:15;9.93;;;5.40;;
56667;SDS011;42542;48.360;10.958;2023-08-12T03:24:18;9.48;;;5.10;;
56667;SDS011;42542;48.360;10.958;2023-08-12T03:27:21;9.23;;;4.90;;
56667;SDS011;42542;48.360;10.958;2023-08-12T03:30:29;13.18;;;5.57;;
56667;SDS011;42542;48.360;10.958;2023-08-12T03:33:35;10.10;;;5.20;;
56667;SDS011;42542;48.360;10.958;2023-08-12T03:36:38;10.27;;;5.13;;
56667;SDS011;42542;48.360;10.958;2023-08-12T03:39:41;11.75;;;5.70;;
56667;SDS011;42542;48.360;10.958;2023-08-12T03:42:47;11.77;;;5.57;;
56667;SDS011;42542;48.360;10.958;2023-08-12T03:45:57;10.02;;;5.20;;
56667;SDS011;42542;48.360;10.958;2023-08-12T03:49:08;10.87;;;5.40;;
56667;SDS011;42542;48.360;10.958;2023-08-12T03:52:10;10.57;;;5.10;;
56667;SDS011;42542;48.360;10.958;2023-08-12T03:55:12;10.45;;;5.03;;
56667;SDS011;42542;48.360;10.958;2023-08-12T03:58:15;11.90;;;5.50;;
56667;SDS011;42542;48.360;10.958;2023-08-12T04:01:19;12.37;;;5.80;;
56667;SDS011;42542;48.360;10.958;2023-08-12T04:04:21;11.68;;;5.70;;
56667;SDS011;42542;48.360;10.958;2023-08-12T04:07:23;9.68;;;5.10;;
56667;SDS011;42542;48.360;10.958;2023-08-12T04:10:25;11.50;;;5.50;;
56667;SDS011;42542;48.360;10.958;2023-08-12T04:13:28;11.10;;;5.20;;
56667;SDS011;42542;48.360;10.958;2023-08-12T04:16:29;12.02;;;5.32;;
56667;SDS011;42542;48.360;10.958;2023-08-12T04:19:32;10.50;;;5.63;;
56667;SDS011;42542;48.360;10.958;2023-08-12T04:22:34;10.25;;;5.10;;
56667;SDS011;42542;48.360;10.958;2023-08-12T04:25:36;10.70;;;5.30;;
56667;SDS011;42542;48.360;10.958;2023-08-12T04:28:39;11.03;;;5.97;;
56667;SDS011;42542;48.360;10.958;2023-08-12T04:31:41;12.15;;;5.78;;
56667;SDS011;42542;48.360;10.958;2023-08-12T04:34:45;10.95;;;6.10;;
56667;SDS011;42542;48.360;10.958;2023-08-12T04:37:48;10.63;;;5.72;;
56667;SDS011;42542;48.360;10.958;2023-08-12T04:40:52;11.60;;;5.87;;
56667;SDS011;42542;48.360;10.958;2023-08-12T04:43:56;13.30;;;6.05;;
56667;SDS011;42542;48.360;10.958;2023-08-12T04:47:02;11.25;;;6.07;;
56667;SDS011;42542;48.360;10.958;2023-08-12T04:50:06;12.48;;;6.00;;
56667;SDS011;42542;48.360;10.958;2023-08-12T04:53:09;11.20;;;5.60;;
56667;SDS011;42542;48.360;10.958;2023-08-12T04:56:11;11.95;;;6.22;;
56667;SDS011;42542;48.360;10.958;2023-08-12T04:59:13;11.90;;;6.35;;
56667;SDS011;42542;48.360;10.958;2023-08-12T05:02:16;12.45;;;5.93;;
56667;SDS011;42542;48.360;10.958;2023-08-12T05:05:20;13.25;;;6.57;;
56667;SDS011;42542;48.360;10.958;2023-08-12T05:08:22;10.83;;;5.87;;
56667;SDS011;42542;48.360;10.958;2023-08-12T05:11:25;12.65;;;6.25;;
56667;SDS011;42542;48.360;10.958;2023-08-12T05:14:26;11.82;;;6.30;;
56667;SDS011;42542;48.360;10.958;2023-08-12T05:17:29;12.13;;;6.50;;
56667;SDS011;42542;48.360;10.958;2023-08-12T05:20:31;11.97;;;6.10;;
56667;SDS011;42542;48.360;10.958;2023-08-12T05:23:35;13.18;;;6.55;;
56667;SDS011;42542;48.360;10.958;2023-08-12T05:26:37;12.02;;;6.72;;
56667;SDS011;42542;48.360;10.958;2023-08-12T05:29:40;11.60;;;6.10;;
56667;SDS011;42542;48.360;10.958;2023-08-12T05:32:42;10.80;;;6.13;;
56667;SDS011;42542;48.360;10.958;2023-08-12T05:35:47;11.02;;;5.93;;
56667;SDS011;42542;48.360;10.958;2023-08-12T05:38:49;10.93;;;6.18;;
56667;SDS011;42542;48.360;10.958;2023-08-12T05:41:52;13.00;;;6.57;;
56667;SDS011;42542;48.360;10.958;2023-08-12T05:44:53;11.95;;;5.82;;
56667;SDS011;42542;48.360;10.958;2023-08-12T05:47:57;10.40;;;5.67;;
56667;SDS011;42542;48.360;10.958;2023-08-12T05:50:59;11.68;;;6.03;;
56667;SDS011;42542;48.360;10.958;2023-08-12T05:54:02;12.05;;;5.93;;
56667;SDS011;42542;48.360;10.958;2023-08-12T05:57:04;10.30;;;5.80;;
56667;SDS011;42542;48.360;10.958;2023-08-12T06:00:06;10.10;;;5.60;;
56667;SDS011;42542;48.360;10.958;2023-08-12T06:03:12;11.60;;;5.73;;
56667;SDS011;42542;48.360;10.958;2023-08-12T06:06:14;10.95;;;6.13;;
56667;SDS011;42542;48.360;10.958;2023-08-12T06:09:16;10.98;;;6.18;;
56667;SDS011;42542;48.360;10.958;2023-08-12T06:12:19;11.88;;;6.57;;
56667;SDS011;42542;48.360;10.958;2023-08-12T06:15:20;11.80;;;6.50;;
56667;SDS011;42542;48.360;10.958;2023-08-12T06:18:23;11.95;;;6.10;;
56667;SDS011;42542;48.360;10.958;2023-08-12T06:21:24;12.05;;;6.53;;
56667;SDS011;42542;48.360;10.958;2023-08-12T06:24:27;12.85;;;6.10;;
56667;SDS011;42542;48.360;10.958;2023-08-12T06:27:29;10.75;;;6.13;;
56667;SDS011;42542;48.360;10.958;2023-08-12T06:30:31;13.33;;;6.20;;
56667;SDS011;42542;48.360;10.958;2023-08-12T06:33:33;10.27;;;5.72;;
56667;SDS011;42542;48.360;10.958;2023-08-12T06:36:35;11.80;;;6.15;;
56667;SDS011;42542;48.360;10.958;2023-08-12T06:39:37;11.23;;;6.00;;
56667;SDS011;42542;48.360;10.958;2023-08-12T06:42:40;10.38;;;5.43;;
56667;SDS011;42542;48.360;10.958;2023-08-12T06:45:41;13.00;;;5.40;;
56667;SDS011;42542;48.360;10.958;2023-08-12T06:48:44;11.10;;;5.65;;
56667;SDS011;42542;48.360;10.958;2023-08-12T06:51:46;10.02;;;5.68;;
56667;SDS011;42542;48.360;10.958;2023-08-12T06:54:48;12.23;;;5.53;;
56667;SDS011;42542;48.360;10.958;2023-08-12T06:57:50;9.35;;;5.43;;
56667;SDS011;42542;48.360;10.958;2023-08-12T07:00:53;10.07;;;5.33;;
56667;SDS011;42542;48.360;10.958;2023-08-12T07:03:55;11.30;;;6.28;;
56667;SDS011;42542;48.360;10.958;2023-08-12T07:06:56;10.48;;;5.70;;
56667;SDS011;42542;48.360;10.958;2023-08-12T07:09:58;11.23;;;5.57;;
56667;SDS011;42542;48.360;10.958;2023-08-12T07:13:00;10.45;;;5.10;;
56667;SDS011;42542;48.360;10.958;2023-08-12T07:16:02;10.73;;;5.60;;
56667;SDS011;42542;48.360;10.958;2023-08-12T07:19:05;12.82;;;5.45;;
56667;SDS011;42542;48.360;10.958;2023-08-12T07:22:07;9.13;;;5.10;;
56667;SDS011;42542;48.360;10.958;2023-08-12T07:25:09;9.60;;;5.47;;
56667;SDS011;42542;48.360;10.958;2023-08-12T07:28:11;9.55;;;4.90;;
56667;SDS011;42542;48.360;10.958;2023-08-12T07:31:14;8.87;;;5.20;;
56667;SDS011;42542;48.360;10.958;2023-08-12T07:34:16;10.23;;;5.30;;
56667;SDS011;42542;48.360;10.958;2023-08-12T07:37:19;8.93;;;5.10;;
56667;SDS011;42542;48.360;10.958;2023-08-12T07:40:21;10.50;;;5.15;;
56667;SDS011;42542;48.360;10.958;2023-08-12T07:43:23;9.05;;;4.93;;
56667;SDS011;42542;48.360;10.958;2023-08-12T07:46:25;9.07;;;4.93;;
56667;SDS011;42542;48.360;10.958;2023-08-12T07:49:27;8.38;;;5.18;;
56667;SDS011;42542;48.360;10.958;2023-08-12T07:52:29;8.75;;;5.00;;
56667;SDS011;42542;48.360;10.958;2023-08-12T07:55:31;9.50;;;5.03;;
56667;SDS011;42542;48.360;10.958;2023-08-12T07:58:33;8.77;;;5.10;;
56667;SDS011;42542;48.360;10.958;2023-08-12T08:01:35;9.80;;;5.03;;
56667;SDS011;42542;48.360;10.958;2023-08-12T08:04:39;9.77;;;5.00;;
56667;SDS011;42542;48.360;10.958;2023-08-12T08:07:42;9.77;;;5.07;;
56667;SDS011;42542;48.360;10.958;2023-08-12T08:10:43;9.15;;;4.90;;
56667;SDS011;42542;48.360;10.958;2023-08-12T08:13:46;8.63;;;4.93;;
56667;SDS011;42542;48.360;10.958;2023-08-12T08:16:48;10.03;;;5.23;;
56667;SDS011;42542;48.360;10.958;2023-08-12T08:19:50;9.07;;;5.13;;
56667;SDS011;42542;48.360;10.958;2023-08-12T08:22:51;10.57;;;5.18;;
56667;SDS011;42542;48.360;10.958;2023-08-12T08:25:57;8.70;;;5.20;;
56667;SDS011;42542;48.360;10.958;2023-08-12T08:28:59;9.45;;;5.70;;
56667;SDS011;42542;48.360;10.958;2023-08-12T08:32:01;8.57;;;5.00;;
56667;SDS011;42542;48.360;10.958;2023-08-12T08:35:03;8.35;;;4.90;;
56667;SDS011;42542;48.360;10.958;2023-08-12T08:38:06;9.93;;;5.15;;
56667;SDS011;42542;48.360;10.958;2023-08-12T08:41:08;9.90;;;5.30;;
56667;SDS011;42542;48.360;10.958;2023-08-12T08:44:12;8.57;;;5.15;;
56667;SDS011;42542;48.360;10.958;2023-08-12T08:47:16;8.80;;;4.97;;
56667;SDS011;42542;48.360;10.958;2023-08-12T08:50:21;9.83;;;4.80;;
56667;SDS011;42542;48.360;10.958;2023-08-12T08:53:23;8.73;;;4.90;;
56667;SDS011;42542;48.360;10.958;2023-08-12T08:56:26;9.18;;;5.15;;
56667;SDS011;42542;48.360;10.958;2023-08-12T08:59:29;9.07;;;4.95;;
56667;SDS011;42542;48.360;10.958;2023-08-12T09:02:32;9.60;;;5.53;;
56667;SDS011;42542;48.360;10.958;2023-08-12T09:05:34;8.47;;;5.20;;
56667;SDS011;42542;48.360;10.958;2023-08-12T09:08:38;9.02;;;4.88;;
56667;SDS011;42542;48.360;10.958;2023-08-12T09:11:44;9.57;;;4.97;;
56667;SDS011;42542;48.360;10.958;2023-08-12T09:14:47;8.52;;;5.00;;
56667;SDS011;42542;48.360;10.958;2023-08-12T09:17:50;9.23;;;5.10;;
56667;SDS011;42542;48.360;10.958;2023-08-12T09:20:53;9.93;;;4.97;;
56667;SDS011;42542;48.360;10.958;2023-08-12T09:23:55;9.85;;;5.30;;
56667;SDS011;42542;48.360;10.958;2023-08-12T09:26:57;8.75;;;5.05;;
56667;SDS011;42542;48.360;10.958;2023-08-12T09:30:02;8.38;;;5.05;;
56667;SDS011;42542;48.360;10.958;2023-08-12T09:33:05;9.03;;;5.27;;
56667;SDS011;42542;48.360;10.958;2023-08-12T09:36:09;8.83;;;5.40;;
56667;SDS011;42542;48.360;10.958;2023-08-12T09:39:12;9.25;;;5.57;;
56667;SDS011;42542;48.360;10.958;2023-08-12T09:42:17;8.27;;;5.15;;
56667;SDS011;42542;48.360;10.958;2023-08-12T09:45:23;11.10;;;5.18;;
56667;SDS011;42542;48.360;10.958;2023-08-12T09:48:25;9.80;;;5.50;;
56667;SDS011;42542;48.360;10.958;2023-08-12T09:51:33;9.70;;;5.57;;
56667;SDS011;42542;48.360;10.958;2023-08-12T09:54:36;8.27;;;5.28;;
56667;SDS011;42542;48.360;10.958;2023-08-12T09:57:39;9.43;;;5.10;;
56667;SDS011;42542;48.360;10.958;2023-08-12T10:00:45;8.10;;;5.00;;
56667;SDS011;42542;48.360;10.958;2023-08-12T10:03:50;9.37;;;4.70;;
56667;SDS011;42542;48.360;10.958;2023-08-12T10:06:55;7.63;;;4.67;;
56667;SDS011;42542;48.360;10.958;2023-08-12T10:09:57;8.40;;;4.70;;
56667;SDS011;42542;48.360;10.958;2023-08-12T10:12:59;7.93;;;4.63;;
56667;SDS011;42542;48.360;10.958;2023-08-12T10:16:04;9.20;;;4.72;;
56667;SDS011;42542;48.360;10.958;2023-08-12T10:19:06;8.97;;;4.50;;
56667;SDS011;42542;48.360;10.958;2023-08-12T10:22:08;7.83;;;4.70;;
56667;SDS011;42542;48.360;10.958;2023-08-12T10:25:12;8.27;;;4.50;;
56667;SDS011;42542;48.360;10.958;2023-08-12T10:28:18;7.07;;;4.20;;
56667;SDS011;42542;48.360;10.958;2023-08-12T10:31:20;7.40;;;4.30;;
56667;SDS011;42542;48.360;10.958;2023-08-12T10:34:24;7.00;;;3.87;;
56667;SDS011;42542;48.360;10.958;2023-08-12T10:37:26;7.33;;;4.10;;
56667;SDS011;42542;48.360;10.958;2023-08-12T10:40:33;6.88;;;3.72;;
56667;SDS011;42542;48.360;10.958;2023-08-12T10:43:48;7.43;;;3.97;;
56667;SDS011;42542;48.360;10.958;2023-08-12T10:46:53;7.13;;;3.70;;
56667;SDS011;42542;48.360;10.958;2023-08-12T10:49:56;8.83;;;4.07;;
56667;SDS011;42542;48.360;10.958;2023-08-12T10:53:01;8.10;;;3.83;;
56667;SDS011;42542;48.360;10.958;2023-08-12T10:56:23;8.13;;;4.00;;
56667;SDS011;42542;48.360;10.958;2023-08-12T11:02:51;6.82;;;4.05;;
56667;SDS011;42542;48.360;10.958;2023-08-12T11:05:54;7.40;;;4.13;;
56667;SDS011;42542;48.360;10.958;2023-08-12T11:08:57;7.47;;;4.17;;
56667;SDS011;42542;48.360;10.958;2023-08-12T11:12:01;8.85;;;4.00;;
56667;SDS011;42542;48.360;10.958;2023-08-12T11:15:04;9.07;;;4.20;;
56667;SDS011;42542;48.360;10.958;2023-08-12T11:21:10;9.00;;;4.23;;
56667;SDS011;42542;48.360;10.958;2023-08-12T11:24:13;8.47;;;4.00;;
56667;SDS011;42542;48.360;10.958;2023-08-12T11:27:17;7.70;;;4.20;;
56667;SDS011;42542;48.360;10.958;2023-08-12T11:30:20;8.07;;;4.28;;
56667;SDS011;42542;48.360;10.958;2023-08-12T11:33:23;7.30;;;4.20;;
56667;SDS011;42542;48.360;10.958;2023-08-12T11:36:26;9.60;;;4.23;;
56667;SDS011;42542;48.360;10.958;2023-08-12T11:39:34;8.77;;;4.10;;
56667;SDS011;42542;48.360;10.958;2023-08-12T11:42:40;7.68;;;3.88;;
56667;SDS011;42542;48.360;10.958;2023-08-12T11:45:45;8.20;;;4.03;;
56667;SDS011;42542;48.360;10.958;2023-08-12T11:48:51;7.47;;;4.20;;
56667;SDS011;42542;48.360;10.958;2023-08-12T11:51:54;8.67;;;3.70;;
56667;SDS011;42542;48.360;10.958;2023-08-12T11:54:56;7.97;;;4.10;;
56667;SDS011;42542;48.360;10.958;2023-08-12T11:58:00;9.85;;;4.22;;
56667;SDS011;42542;48.360;10.958;2023-08-12T12:01:02;6.90;;;4.00;;
56667;SDS011;42542;48.360;10.958;2023-08-12T12:04:05;7.70;;;4.13;;
56667;SDS011;42542;48.360;10.958;2023-08-12T12:07:16;9.03;;;4.17;;
56667;SDS011;42542;48.360;10.958;2023-08-12T12:10:29;9.97;;;4.40;;
56667;SDS011;42542;48.360;10.958;2023-08-12T12:13:35;8.88;;;4.20;;
56667;SDS011;42542;48.360;10.958;2023-08-12T12:16:39;7.53;;;4.32;;
56667;SDS011;42542;48.360;10.958;2023-08-12T12:19:42;7.65;;;4.65;;
56667;SDS011;42542;48.360;10.958;2023-08-12T12:22:46;7.73;;;4.47;;
56667;SDS011;42542;48.360;10.958;2023-08-12T12:25:49;8.37;;;4.50;;
56667;SDS011;42542;48.360;10.958;2023-08-12T12:28:51;9.55;;;4.53;;
56667;SDS011;42542;48.360;10.958;2023-08-12T12:31:52;8.07;;;4.55;;
56667;SDS011;42542;48.360;10.958;2023-08-12T12:34:55;8.18;;;4.50;;
56667;SDS011;42542;48.360;10.958;2023-08-12T12:37:56;8.13;;;4.30;;
56667;SDS011;42542;48.360;10.958;2023-08-12T12:40:59;6.97;;;3.90;;
56667;SDS011;42542;48.360;10.958;2023-08-12T12:44:01;9.13;;;4.00;;
56667;SDS011;42542;48.360;10.958;2023-08-12T12:47:04;7.38;;;4.10;;
56667;SDS011;42542;48.360;10.958;2023-08-12T12:50:06;12.70;;;4.30;;
56667;SDS011;42542;48.360;10.958;2023-08-12T12:53:09;7.80;;;4.40;;
56667;SDS011;42542;48.360;10.958;2023-08-12T12:56:10;8.90;;;4.57;;
56667;SDS011;42542;48.360;10.958;2023-08-12T12:59:13;7.18;;;4.00;;
56667;SDS011;42542;48.360;10.958;2023-08-12T13:02:18;8.15;;;4.10;;
56667;SDS011;42542;48.360;10.958;2023-08-12T13:05:21;7.90;;;4.00;;
56667;SDS011;42542;48.360;10.958;2023-08-12T13:08:23;6.80;;;3.83;;
56667;SDS011;42542;48.360;10.958;2023-08-12T13:11:25;9.17;;;4.40;;
56667;SDS011;42542;48.360;10.958;2023-08-12T13:14:27;7.30;;;4.00;;
56667;SDS011;42542;48.360;10.958;2023-08-12T13:17:32;7.30;;;4.03;;
56667;SDS011;42542;48.360;10.958;2023-08-12T13:20:34;8.25;;;3.85;;
56667;SDS011;42542;48.360;10.958;2023-08-12T13:23:37;8.20;;;3.57;;
56667;SDS011;42542;48.360;10.958;2023-08-12T13:26:39;6.60;;;3.47;;
56667;SDS011;42542;48.360;10.958;2023-08-12T13:29:41;6.88;;;3.60;;
56667;SDS011;42542;48.360;10.958;2023-08-12T13:32:43;6.53;;;3.33;;
56667;SDS011;42542;48.360;10.958;2023-08-12T13:35:45;6.95;;;3.30;;
56667;SDS011;42542;48.360;10.958;2023-08-12T13:38:48;6.63;;;3.37;;
56667;SDS011;42542;48.360;10.958;2023-08-12T13:41:51;6.30;;;3.47;;
56667;SDS011;42542;48.360;10.958;2023-08-12T13:44:54;7.40;;;3.65;;
56667;SDS011;42542;48.360;10.958;2023-08-12T13:47:55;6.28;;;3.55;;
56667;SDS011;42542;48.360;10.958;2023-08-12T13:50:58;6.32;;;3.40;;
56667;SDS011;42542;48.360;10.958;2023-08-12T13:54:02;6.57;;;3.57;;
56667;SDS011;42542;48.360;10.958;2023-08-12T13:57:05;7.57;;;3.40;;
56667;SDS011;42542;48.360;10.958;2023-08-12T14:00:07;8.15;;;3.70;;
56667;SDS011;42542;48.360;10.958;2023-08-12T14:03:17;6.85;;;3.88;;
56667;SDS011;42542;48.360;10.958;2023-08-12T14:06:19;7.07;;;3.88;;
56667;SDS011;42542;48.360;10.958;2023-08-12T14:09:22;6.60;;;3.63;;
56667;SDS011;42542;48.360;10.958;2023-08-12T14:12:23;7.57;;;3.80;;
56667;SDS011;42542;48.360;10.958;2023-08-12T14:15:25;7.53;;;3.55;;
56667;SDS011;42542;48.360;10.958;2023-08-12T14:18:28;7.10;;;4.00;;
56667;SDS011;42542;48.360;10.958;2023-08-12T14:21:29;8.05;;;4.05;;
56667;SDS011;42542;48.360;10.958;2023-08-12T14:24:31;7.47;;;4.40;;
56667;SDS011;42542;48.360;10.958;2023-08-12T14:27:33;8.50;;;4.40;;
56667;SDS011;42542;48.360;10.958;2023-08-12T14:30:35;7.78;;;4.53;;
56667;SDS011;42542;48.360;10.958;2023-08-12T14:33:38;7.65;;;4.43;;
56667;SDS011;42542;48.360;10.958;2023-08-12T14:36:41;7.60;;;4.47;;
56667;SDS011;42542;48.360;10.958;2023-08-12T14:39:43;7.70;;;4.33;;
56667;SDS011;42542;48.360;10.958;2023-08-12T14:42:45;8.40;;;4.70;;
56667;SDS011;42542;48.360;10.958;2023-08-12T14:45:47;8.80;;;4.75;;
56667;SDS011;42542;48.360;10.958;2023-08-12T14:48:50;7.35;;;4.60;;
56667;SDS011;42542;48.360;10.958;2023-08-12T14:51:54;9.20;;;4.80;;
56667;SDS011;42542;48.360;10.958;2023-08-12T14:54:58;8.37;;;4.80;;
56667;SDS011;42542;48.360;10.958;2023-08-12T14:58:00;8.90;;;4.70;;
56667;SDS011;42542;48.360;10.958;2023-08-12T15:01:02;8.95;;;4.93;;
56667;SDS011;42542;48.360;10.958;2023-08-12T15:04:04;7.93;;;4.50;;
56667;SDS011;42542;48.360;10.958;2023-08-12T15:07:08;8.98;;;5.05;;
56667;SDS011;42542;48.360;10.958;2023-08-12T15:10:09;10.10;;;4.83;;
56667;SDS011;42542;48.360;10.958;2023-08-12T15:13:12;8.70;;;4.70;;
56667;SDS011;42542;48.360;10.958;2023-08-12T15:16:14;8.55;;;4.82;;
56667;SDS011;42542;48.360;10.958;2023-08-12T15:19:16;9.38;;;4.90;;
56667;SDS011;42542;48.360;10.958;2023-08-12T15:22:18;10.27;;;4.75;;
56667;SDS011;42542;48.360;10.958;2023-08-12T15:25:21;9.37;;;5.00;;
56667;SDS011;42542;48.360;10.958;2023-08-12T15:28:22;8.60;;;4.60;;
56667;SDS011;42542;48.360;10.958;2023-08-12T15:31:25;8.70;;;4.75;;
56667;SDS011;42542;48.360;10.958;2023-08-12T15:34:27;8.35;;;4.95;;
56667;SDS011;42542;48.360;10.958;2023-08-12T15:37:29;8.55;;;4.72;;
56667;SDS011;42542;48.360;10.958;2023-08-12T15:40:32;8.90;;;5.10;;
56667;SDS011;42542;48.360;10.958;2023-08-12T15:43:35;7.47;;;4.40;;
56667;SDS011;42542;48.360;10.958;2023-08-12T15:46:39;8.07;;;4.80;;
56667;SDS011;42542;48.360;10.958;2023-08-12T15:49:43;10.15;;;4.60;;
56667;SDS011;42542;48.360;10.958;2023-08-12T15:52:45;9.25;;;4.97;;
56667;SDS011;42542;48.360;10.958;2023-08-12T15:55:47;8.23;;;4.77;;
56667;SDS011;42542;48.360;10.958;2023-08-12T15:58:50;8.00;;;4.60;;
56667;SDS011;42542;48.360;10.958;2023-08-12T16:01:52;11.40;;;5.22;;
56667;SDS011;42542;48.360;10.958;2023-08-12T16:04:54;8.90;;;4.97;;
56667;SDS011;42542;48.360;10.958;2023-08-12T16:07:56;8.75;;;4.95;;
56667;SDS011;42542;48.360;10.958;2023-08-12T16:10:58;8.90;;;4.90;;
56667;SDS011;42542;48.360;10.958;2023-08-12T16:14:00;8.17;;;5.10;;
56667;SDS011;42542;48.360;10.958;2023-08-12T16:17:03;7.72;;;4.07;;
56667;SDS011;42542;48.360;10.958;2023-08-12T16:20:10;7.57;;;3.40;;
56667;SDS011;42542;48.360;10.958;2023-08-12T16:23:14;7.20;;;3.20;;
56667;SDS011;42542;48.360;10.958;2023-08-12T16:26:15;7.40;;;3.20;;
56667;SDS011;42542;48.360;10.958;2023-08-12T16:29:19;7.60;;;3.00;;
56667;SDS011;42542;48.360;10.958;2023-08-12T16:32:21;8.55;;;3.53;;
56667;SDS011;42542;48.360;10.958;2023-08-12T16:35:24;8.05;;;3.15;;
56667;SDS011;42542;48.360;10.958;2023-08-12T16:38:26;6.60;;;3.20;;
56667;SDS011;42542;48.360;10.958;2023-08-12T16:41:28;7.50;;;3.43;;
56667;SDS011;42542;48.360;10.958;2023-08-12T16:44:29;7.00;;;3.20;;
56667;SDS011;42542;48.360;10.958;2023-08-12T16:47:32;7.28;;;3.20;;
56667;SDS011;42542;48.360;10.958;2023-08-12T16:50:34;6.20;;;3.20;;
56667;SDS011;42542;48.360;10.958;2023-08-12T16:53:36;9.55;;;3.63;;
56667;SDS011;42542;48.360;10.958;2023-08-12T16:56:38;7.43;;;3.47;;
56667;SDS011;42542;48.360;10.958;2023-08-12T16:59:40;7.13;;;3.20;;
56667;SDS011;42542;48.360;10.958;2023-08-12T17:02:42;6.72;;;3.10;;
56667;SDS011;42542;48.360;10.958;2023-08-12T17:05:45;10.38;;;3.20;;
56667;SDS011;42542;48.360;10.958;2023-08-12T17:08:46;10.40;;;3.00;;
56667;SDS011;42542;48.360;10.958;2023-08-12T17:11:49;7.97;;;3.23;;
56667;SDS011;42542;48.360;10.958;2023-08-12T17:14:51;8.77;;;3.30;;
56667;SDS011;42542;48.360;10.958;2023-08-12T17:17:54;7.30;;;2.90;;
56667;SDS011;42542;48.360;10.958;2023-08-12T17:20:55;8.20;;;2.83;;
56667;SDS011;42542;48.360;10.958;2023-08-12T17:23:58;7.13;;;2.60;;
56667;SDS011;42542;48.360;10.958;2023-08-12T17:27:00;8.27;;;2.50;;
56667;SDS011;42542;48.360;10.958;2023-08-12T17:30:02;5.60;;;2.40;;
56667;SDS011;42542;48.360;10.958;2023-08-12T17:33:04;9.52;;;2.83;;
56667;SDS011;42542;48.360;10.958;2023-08-12T17:36:07;10.10;;;2.70;;
56667;SDS011;42542;48.360;10.958;2023-08-12T17:39:08;8.75;;;2.50;;
56667;SDS011;42542;48.360;10.958;2023-08-12T17:42:10;6.83;;;2.50;;
56667;SDS011;42542;48.360;10.958;2023-08-12T17:45:12;8.37;;;2.67;;
56667;SDS011;42542;48.360;10.958;2023-08-12T17:48:15;6.80;;;2.60;;
56667;SDS011;42542;48.360;10.958;2023-08-12T17:51:17;6.28;;;2.50;;
56667;SDS011;42542;48.360;10.958;2023-08-12T17:54:19;11.32;;;2.70;;
56667;SDS011;42542;48.360;10.958;2023-08-12T17:57:21;7.73;;;2.27;;
56667;SDS011;42542;48.360;10.958;2023-08-12T18:00:24;7.20;;;2.57;;
56667;SDS011;42542;48.360;10.958;2023-08-12T18:03:25;7.28;;;2.50;;
56667;SDS011;42542;48.360;10.958;2023-08-12T18:06:28;7.53;;;2.50;;
56667;SDS011;42542;48.360;10.958;2023-08-12T18:09:30;7.28;;;2.58;;
56667;SDS011;42542;48.360;10.958;2023-08-12T18:12:32;6.33;;;2.57;;